• Join FlightAware (Why Join?)
  • Login
  • US Flag 
07:17AM EDT


 

Airport Tracker/Info


-or-


 

Live Flight TrackerFlight Track Log ✈ CSJ405 ✈ 03-May-2013 ✈ CYMX - KALB

Flight Track Log - Related Links

Times and Time Zones

All times are in EDT time to prevent confusion due to time zone crossing. See the CSJ405 flight status page for this flight to view local times or setup timezone preferences in your user account.

Time Position Orientation Groundspeed Altitude Reporting Facility
EDT Latitude Longitude Course Direction KTS MPH feet Rate Location/Type
05:01AM 45.6667 -73.9833 180° South 80 92 1,500  Level Montreal Center
05:02AM 45.6833 -73.9500 54° Northeast 70 81 2,600 1,020 Climbing Montreal Center
05:03AM 45.6500 -73.9500 180° South 100 115 3,600 960 Climbing Montreal Center
05:04AM 45.6333 -73.9500 180° South 110 127 4,600 1,020 Climbing Montreal Center
05:05AM 45.6000 -73.9500 180° South 120 138 5,700 1,080 Climbing Montreal Center
05:06AM 45.3937 -74.0145 180° South  Level Estimated
05:06AM 45.5667 -73.9500 180° South 130 150 6,800  Level Montreal Center
05:07AM 45.5333 -73.9667 199° South 130 150 7,700 900 Climbing Montreal Center
05:08AM 45.4833 -73.9667 180° South 130 150 8,700 900 Climbing Montreal Center
05:09AM 45.4500 -73.9333 145° Southeast 130 150 9,500 600 Climbing Montreal Center
05:10AM 45.4167 -73.9333 180° South 140 161 10,000 240 Climbing Montreal Center
05:11AM 45.3667 -73.9333 180° South 160 184 10,000  Level Montreal Center
05:12AM 45.3333 -73.9500 199° South 160 184 10,000  Level Montreal Center
05:13AM 45.2833 -73.9500 180° South 160 184 10,000  Level Montreal Center
05:14AM 45.2333 -73.9500 180° South 160 184 10,000  Level Montreal Center
05:15AM 45.2000 -73.9500 180° South 160 184 10,000  Level Montreal Center
05:16AM 45.1500 -73.9333 167° South 160 184 10,000  Level Montreal Center
05:17AM 45.1000 -73.9333 180° South 160 184 10,000  Level Montreal Center
05:18AM 45.0500 -73.9333 180° South 160 184 10,000  Level Montreal Center
05:19AM 45.0167 -73.9333 180° South 160 184 10,000  Level Montreal Center
05:20AM 44.9667 -73.9333 180° South 170 196 10,000  Level Montreal Center
05:21AM 44.9167 -73.9167 167° South 170 196 10,000  Level Montreal Center
05:22AM 44.8667 -73.9167 180° South 170 196 10,000  Level Montreal Center
05:22AM 44.8600 -73.9247 221° Southwest 172 198 10,000  Level Boston Center
05:24AM 44.7978 -73.9203 177° South 172 198 10,000  Level Boston Center
05:25AM 44.7394 -73.9189 179° South 172 198 10,000  Level Boston Center
05:26AM 44.6956 -73.9178 179° South 177 204 10,000  Level Boston Center
05:27AM 44.6456 -73.9136 177° South 177 204 10,000  Level Boston Center
05:28AM 44.5978 -73.9094 176° South 177 204 10,000  Level Boston Center
05:29AM 44.5519 -73.9083 179° South 177 204 10,000  Level Boston Center
05:30AM 44.5083 -73.9042 176° South 177 204 10,000  Level Boston Center
05:31AM 44.4561 -73.9031 179° South 177 204 10,000  Level Boston Center
05:32AM 44.4061 -73.9017 179° South 177 204 10,000  Level Boston Center
05:33AM 44.3583 -73.8978 177° South 177 204 10,000  Level Boston Center
05:34AM 44.3083 -73.8964 179° South 177 204 10,000  Level Boston Center
05:35AM 44.2606 -73.8925 177° South 177 204 10,000  Level Boston Center
05:36AM 44.2042 -73.8911 179° South 177 204 10,000  Level Boston Center
05:37AM 44.1439 -73.8867 177° South 177 204 10,000  Level Boston Center
05:38AM 44.0961 -73.8797 174° South 177 204 10,000  Level Boston Center
05:39AM 44.0503 -73.8814 181° South 182 209 10,000  Level Boston Center
05:40AM 44.0022 -73.8803 179° South 177 204 10,000  Level Boston Center
05:41AM 43.9522 -73.8761 177° South 177 204 10,000  Level Boston Center
05:42AM 43.8961 -73.8719 177° South 183 211 10,000  Level Boston Center
05:43AM 43.8461 -73.8708 179° South 177 204 10,000  Level Boston Center
05:44AM 43.7939 -73.8697 179° South 177 204 10,000  Level Boston Center
05:45AM 43.7442 -73.8656 177° South 177 204 10,000  Level Boston Center
05:46AM 43.6942 -73.8614 177° South 177 204 10,000  Level Boston Center
05:47AM 43.6358 -73.8572 177° South 177 204 10,000  Level Boston Center
05:48AM 43.5858 -73.8533 177° South 182 209 10,000  Level Boston Center
05:49AM 43.5400 -73.8550 182° South 181 208 10,000  Level Boston Center
05:50AM 43.4942 -73.8567 182° South 183 211 10,000  Level Boston Center
05:51AM 43.4442 -73.8500 174° South 182 209 10,000  Level Boston Center
05:52AM 43.3942 -73.8458 177° South 182 209 10,000  Level Boston Center
05:53AM 43.3422 -73.8447 179° South 184 212 10,000 -300 Level Boston Center
05:54AM 43.2900 -73.8406 177° South 189 217 9,500 -540 Descending Boston Center
05:55AM 43.2358 -73.8394 179° South 191 220 9,000 -600 Descending Boston Center
05:56AM 43.1858 -73.8353 177° South 190 219 8,300 -660 Descending Boston Center
05:57AM 43.1317 -73.8314 177° South 191 220 7,700 -540 Descending Boston Center
05:58AM 43.0756 -73.8272 177° South 190 219 7,300 -480 Descending Boston Center
05:59AM 43.0214 -73.8203 175° South 187 215 6,800 -780 Descending Boston Center
06:00AM 42.9672 -73.8161 177° South 187 215 5,800 -1,140 Descending Boston Center
06:01AM 42.9194 -73.8153 179° South 179 206 4,600 -1,200 Descending Boston Center
06:02AM 42.8694 -73.8139 179° South 178 205 3,400 -1,320 Descending Boston Center
06:03AM 42.8236 -73.8131 179° South 171 197 2,000 -1,260 Descending Boston Center
06:04AM 42.7797 -73.8092 176° South 151 174 900 -1,140 Descending Boston Center
06:06AM 42.7491 -73.8020 North  Level Estimated
06:13AM 42.7491 -73.8020 North  Level Estimated
06:14AM 42.7491 -73.8020 North  Level Estimated
06:15AM 42.7491 -73.8020 North  Level Estimated